createdAt,value
2023-05-05T00:02:17.107Z,100468.22
2023-05-05T00:04:46.188Z,100463.19
2023-05-05T00:07:15.145Z,100467.38
2023-05-05T00:09:43.182Z,100470.56
2023-05-05T00:12:09.790Z,100467.78
2023-05-05T00:14:38.617Z,100467.03
2023-05-05T00:17:05.314Z,100468.72
2023-05-05T00:19:34.227Z,100465.78
2023-05-05T00:22:01.040Z,100470.22
2023-05-05T00:24:27.842Z,100460.56
2023-05-05T00:26:56.825Z,100462.59
2023-05-05T00:29:23.390Z,100461.63
2023-05-05T00:31:53.410Z,100459.00
2023-05-05T00:34:27.285Z,100458.94
2023-05-05T00:36:54.032Z,100457.31
2023-05-05T00:39:20.684Z,100455.97
2023-05-05T00:41:54.739Z,100463.78
2023-05-05T00:44:37.059Z,100455.78
2023-05-05T00:47:06.555Z,100460.75
2023-05-05T00:49:36.118Z,100453.44
2023-05-05T00:52:04.225Z,100458.56
2023-05-05T00:54:31.048Z,100454.94
2023-05-05T00:57:00.347Z,100451.63
2023-05-05T00:59:29.158Z,100447.31
2023-05-05T01:01:58.259Z,100448.34
2023-05-05T01:04:28.033Z,100448.09
2023-05-05T01:07:08.871Z,100452.47
2023-05-05T01:09:41.395Z,100439.31
2023-05-05T01:12:20.040Z,100442.06
2023-05-05T01:15:30.642Z,100443.13
2023-05-05T01:18:17.425Z,100439.75
2023-05-05T01:21:28.140Z,100435.28
2023-05-05T01:23:57.301Z,100433.72
2023-05-05T01:26:43.927Z,100436.19
2023-05-05T01:29:41.625Z,100436.69
2023-05-05T01:32:12.956Z,100431.72
2023-05-05T01:34:45.297Z,100436.16
2023-05-05T01:37:13.787Z,100434.41
2023-05-05T01:39:43.372Z,100435.25
2023-05-05T01:42:15.164Z,100432.47
2023-05-05T01:44:45.689Z,100432.03
2023-05-05T01:47:16.231Z,100436.19
2023-05-05T01:49:47.831Z,100436.41
2023-05-05T01:52:18.418Z,100428.91
2023-05-05T01:54:46.637Z,100434.06
2023-05-05T01:57:14.810Z,100438.13
2023-05-05T01:59:42.003Z,100435.09
2023-05-05T02:02:11.293Z,100428.44
2023-05-05T02:04:42.695Z,100429.75
2023-05-05T02:07:12.769Z,100428.13
2023-05-05T02:09:40.989Z,100422.28
2023-05-05T02:12:11.055Z,100431.03
2023-05-05T02:14:42.630Z,100425.13
2023-05-05T02:17:10.072Z,100432.84
2023-05-05T02:19:40.149Z,100423.78
2023-05-05T02:22:07.270Z,100430.66
2023-05-05T02:24:34.579Z,100424.63
2023-05-05T02:27:06.324Z,100420.25
2023-05-05T02:29:36.501Z,100427.25
2023-05-05T02:32:09.540Z,100424.56
2023-05-05T02:34:42.112Z,100429.88
2023-05-05T02:37:18.024Z,100423.84
2023-05-05T02:39:58.949Z,100416.75
2023-05-05T02:42:32.242Z,100419.47
2023-05-05T02:45:01.968Z,100419.47
2023-05-05T02:47:37.865Z,100414.16
2023-05-05T02:50:08.386Z,100422.59
2023-05-05T02:52:38.124Z,100418.97
2023-05-05T02:55:06.072Z,100428.31
2023-05-05T02:57:51.525Z,100421.91
2023-05-05T03:00:39.099Z,100424.56
2023-05-05T03:03:09.364Z,100416.41
2023-05-05T03:05:49.821Z,100419.56
2023-05-05T03:08:20.743Z,100420.69
2023-05-05T03:10:57.591Z,100413.03
2023-05-05T03:13:29.415Z,100412.50
2023-05-05T03:15:58.644Z,100415.94
2023-05-05T03:18:27.299Z,100417.66
2023-05-05T03:20:54.652Z,100419.41
2023-05-05T03:23:23.432Z,100422.75
2023-05-05T03:25:50.295Z,100422.72
2023-05-05T03:28:21.364Z,100418.19
2023-05-05T03:30:50.597Z,100414.69
2023-05-05T03:33:17.370Z,100428.09
2023-05-05T03:35:46.477Z,100425.81
2023-05-05T03:38:15.133Z,100426.06
2023-05-05T03:40:44.669Z,100415.78
2023-05-05T03:43:14.339Z,100424.56
2023-05-05T03:45:43.234Z,100416.75
2023-05-05T03:48:12.267Z,100420.91
2023-05-05T03:50:38.862Z,100422.91
2023-05-05T03:53:07.990Z,100422.94
2023-05-05T03:55:34.432Z,100422.66
2023-05-05T03:58:01.064Z,100429.78
2023-05-05T04:00:30.085Z,100434.22
2023-05-05T04:02:59.248Z,100435.94
2023-05-05T04:05:26.288Z,100434.28
2023-05-05T04:07:53.016Z,100433.59
2023-05-05T04:10:19.626Z,100438.91
2023-05-05T04:12:46.640Z,100438.94
2023-05-05T04:15:13.344Z,100443.34
2023-05-05T04:17:39.991Z,100433.13
2023-05-05T04:20:07.416Z,100434.91
2023-05-05T04:22:34.117Z,100433.38
2023-05-05T04:25:01.271Z,100432.47
2023-05-05T04:27:30.002Z,100432.06
2023-05-05T04:29:59.516Z,100434.03
2023-05-05T04:32:30.914Z,100441.66
2023-05-05T04:35:00.052Z,100446.34
2023-05-05T04:37:29.218Z,100442.94
2023-05-05T04:39:55.801Z,100443.16
2023-05-05T04:42:22.429Z,100447.56
2023-05-05T04:44:51.249Z,100453.56
2023-05-05T04:47:17.904Z,100448.47
2023-05-05T04:49:45.234Z,100448.44
2023-05-05T04:52:14.827Z,100455.50
2023-05-05T04:54:41.426Z,100463.31
2023-05-05T04:57:10.609Z,100466.63
2023-05-05T04:59:37.398Z,100467.63
2023-05-05T05:02:04.586Z,100467.63
2023-05-05T05:07:57.152Z,100467.75
2023-05-05T05:10:29.874Z,100473.06
2023-05-05T05:12:56.528Z,100467.91
2023-05-05T05:15:23.194Z,100478.34
2023-05-05T05:17:55.278Z,100474.97
2023-05-05T05:20:24.256Z,100470.66
2023-05-05T05:22:50.978Z,100473.53
2023-05-05T05:25:20.130Z,100469.94
2023-05-05T05:27:50.166Z,100476.91
2023-05-05T05:30:22.491Z,100475.41
2023-05-05T05:36:38.760Z,100481.38
2023-05-05T05:39:05.421Z,100486.75
2023-05-05T05:41:34.910Z,100488.56
2023-05-05T05:47:49.043Z,100488.38
2023-05-05T05:50:17.976Z,100490.31
2023-05-05T05:52:44.624Z,100503.44
2023-05-05T05:55:13.762Z,100498.44
2023-05-05T05:57:40.701Z,100493.41
2023-05-05T06:00:08.375Z,100492.56
2023-05-05T06:02:37.794Z,100496.88
2023-05-05T06:05:07.082Z,100490.13
2023-05-05T06:07:33.661Z,100487.53
2023-05-05T06:10:14.556Z,100487.59
2023-05-05T06:12:53.788Z,100486.81
2023-05-05T06:15:20.397Z,100490.34
2023-05-05T06:17:46.986Z,100490.34
2023-05-05T06:20:16.679Z,100490.25
2023-05-05T06:22:45.980Z,100491.06
2023-05-05T06:25:12.532Z,100486.09
2023-05-05T06:27:39.107Z,100488.78
2023-05-05T06:30:09.831Z,100481.94
2023-05-05T06:32:41.347Z,100482.81
2023-05-05T06:35:10.735Z,100476.78
2023-05-05T06:37:39.945Z,100482.84
2023-05-05T06:40:07.980Z,100478.63
2023-05-05T06:42:35.994Z,100467.44
2023-05-05T06:45:02.642Z,100476.16
2023-05-05T06:47:29.291Z,100479.63
2023-05-05T06:49:55.862Z,100473.63
2023-05-05T06:52:25.163Z,100482.25
2023-05-05T06:54:53.958Z,100479.69
2023-05-05T06:57:22.793Z,100474.50
2023-05-05T06:59:54.451Z,100467.63
2023-05-05T07:02:21.026Z,100474.66
2023-05-05T07:04:50.199Z,100471.22
2023-05-05T07:07:19.080Z,100470.31
2023-05-05T07:09:45.834Z,100472.94
2023-05-05T07:12:14.711Z,100473.78
2023-05-05T07:14:41.356Z,100478.97
2023-05-05T07:17:07.928Z,100474.63
2023-05-05T07:19:34.531Z,100478.13
2023-05-05T07:22:01.211Z,100473.81
2023-05-05T07:24:27.862Z,100466.88
2023-05-05T07:26:55.733Z,100476.41
2023-05-05T07:29:22.278Z,100475.53
2023-05-05T07:31:49.035Z,100474.66
2023-05-05T07:34:18.190Z,100475.53
2023-05-05T07:36:44.867Z,100475.53
2023-05-05T07:39:15.352Z,100474.66
2023-05-05T07:41:44.798Z,100472.09
2023-05-05T07:44:11.656Z,100471.19
2023-05-05T07:46:40.599Z,100477.25
2023-05-05T07:49:07.275Z,100480.72
2023-05-05T07:51:36.507Z,100472.09
2023-05-05T07:54:05.842Z,100478.13
2023-05-05T07:56:32.411Z,100472.88
2023-05-05T07:59:01.570Z,100477.19
2023-05-05T08:01:31.740Z,100472.78
2023-05-05T08:04:00.915Z,100480.38
2023-05-05T08:06:28.840Z,100470.16
2023-05-05T08:08:55.736Z,100480.25
2023-05-05T08:11:24.751Z,100475.19
2023-05-05T08:13:51.593Z,100466.59
2023-05-05T08:16:21.223Z,100463.91
2023-05-05T08:18:48.038Z,100464.75
2023-05-05T08:21:14.627Z,100463.91
2023-05-05T08:23:41.198Z,100463.06
2023-05-05T08:33:05.742Z,100467.47
2023-05-05T08:35:32.340Z,100462.13
2023-05-05T08:38:01.349Z,100462.97
2023-05-05T08:40:36.538Z,100467.94
2023-05-05T08:43:06.676Z,100460.81
2023-05-05T08:45:33.453Z,100467.63
2023-05-05T08:48:08.533Z,100464.22
2023-05-05T08:50:42.150Z,100460.66
2023-05-05T08:53:17.063Z,100460.41
2023-05-05T08:55:56.100Z,100458.56
2023-05-05T08:58:28.831Z,100463.16
2023-05-05T09:00:59.070Z,100454.13
2023-05-05T09:03:29.548Z,100451.34
2023-05-05T09:05:59.008Z,100445.47
2023-05-05T09:08:29.398Z,100439.19
2023-05-05T09:10:55.994Z,100446.94
2023-05-05T09:13:25.371Z,100444.09
2023-05-05T09:15:52.117Z,100436.97
2023-05-05T09:18:18.738Z,100436.47
2023-05-05T09:20:45.423Z,100431.81
2023-05-05T09:23:12.920Z,100431.66
2023-05-05T09:25:41.318Z,100431.34
2023-05-05T09:28:12.179Z,100425.56
2023-05-05T09:30:40.984Z,100425.72
2023-05-05T09:33:07.777Z,100431.59
2023-05-05T09:35:52.436Z,100426.84
2023-05-05T09:38:20.700Z,100419.09
2023-05-05T09:40:52.442Z,100417.28
2023-05-05T09:43:22.017Z,100419.75
2023-05-05T09:45:51.691Z,100414.38
2023-05-05T09:48:29.733Z,100409.56
2023-05-05T09:50:57.538Z,100415.47
2023-05-05T09:53:25.171Z,100410.19
2023-05-05T09:55:59.199Z,100410.44
2023-05-05T09:58:30.709Z,100408.75
2023-05-05T10:00:58.566Z,100410.28
2023-05-05T10:03:25.933Z,100408.16
2023-05-05T10:06:02.827Z,100405.03
2023-05-05T10:08:31.562Z,100398.69
2023-05-05T10:11:04.088Z,100392.47
2023-05-05T10:13:36.203Z,100393.34
2023-05-05T10:16:04.663Z,100394.09
2023-05-05T10:18:32.338Z,100392.06
2023-05-05T10:21:03.541Z,100396.09
2023-05-05T10:23:44.402Z,100388.94
2023-05-05T10:26:14.104Z,100390.91
2023-05-05T10:29:01.383Z,100388.84
2023-05-05T10:31:37.166Z,100383.81
2023-05-05T10:34:13.381Z,100389.56
2023-05-05T10:36:43.023Z,100382.41
2023-05-05T10:39:15.202Z,100378.22
2023-05-05T10:41:42.159Z,100372.81
2023-05-05T10:44:10.867Z,100376.31
2023-05-05T10:46:38.201Z,100370.16
2023-05-05T10:49:40.503Z,100361.41
2023-05-05T10:52:10.228Z,100366.63
2023-05-05T10:54:38.325Z,100358.31
2023-05-05T10:57:09.749Z,100350.13
2023-05-05T10:59:36.821Z,100349.72
2023-05-05T11:02:23.589Z,100343.56
2023-05-05T11:05:15.075Z,100341.19
2023-05-05T11:07:43.113Z,100341.56
2023-05-05T11:10:14.270Z,100338.03
2023-05-05T11:13:12.664Z,100327.19
2023-05-05T11:15:41.877Z,100324.31
2023-05-05T11:18:27.920Z,100319.06
2023-05-05T11:20:57.456Z,100325.06
2023-05-05T11:23:24.244Z,100325.06
2023-05-05T11:25:53.717Z,100321.53
2023-05-05T11:28:31.351Z,100314.88
2023-05-05T11:31:00.953Z,100324.31
2023-05-05T11:33:30.684Z,100323.72
2023-05-05T11:36:13.247Z,100314.19
2023-05-05T11:39:00.160Z,100317.16
2023-05-05T11:41:32.849Z,100305.75
2023-05-05T11:44:12.516Z,100304.84
2023-05-05T11:46:51.348Z,100288.78
2023-05-05T11:49:32.419Z,100296.47
2023-05-05T11:52:04.495Z,100285.56
2023-05-05T11:54:31.830Z,100293.25
2023-05-05T11:57:02.013Z,100284.19
2023-05-05T11:59:28.667Z,100284.94
2023-05-05T12:01:55.346Z,100284.97
2023-05-05T12:04:21.972Z,100286.03
2023-05-05T12:06:51.022Z,100285.75
2023-05-05T12:09:22.198Z,100282.97
2023-05-05T12:11:52.367Z,100277.91
2023-05-05T12:14:22.052Z,100277.22
2023-05-05T12:17:03.114Z,100274.19
2023-05-05T12:19:33.136Z,100275.63
2023-05-05T12:22:01.270Z,100268.44
2023-05-05T12:24:28.361Z,100272.47
2023-05-05T12:26:58.033Z,100270.38
2023-05-05T12:29:25.848Z,100257.94
2023-05-05T12:31:52.546Z,100260.75
2023-05-05T12:34:19.474Z,100261.94
2023-05-05T12:36:49.011Z,100251.56
2023-05-05T12:39:15.641Z,100258.38
2023-05-05T12:41:44.998Z,100255.22
2023-05-05T12:44:16.621Z,100260.22
2023-05-05T12:46:53.042Z,100251.25
2023-05-05T12:49:19.611Z,100246.56
2023-05-05T12:51:58.790Z,100244.03
2023-05-05T12:54:25.379Z,100238.91
2023-05-05T12:56:54.357Z,100237.84
2023-05-05T12:59:24.198Z,100237.19
2023-05-05T13:01:54.208Z,100237.84
2023-05-05T13:04:30.262Z,100235.69
2023-05-05T13:07:16.537Z,100230.13
2023-05-05T13:09:43.621Z,100225.00
2023-05-05T13:12:12.771Z,100213.53
2023-05-05T13:14:40.876Z,100220.88
2023-05-05T13:17:07.675Z,100218.00
2023-05-05T13:19:35.824Z,100217.91
2023-05-05T13:22:02.426Z,100204.00
2023-05-05T13:24:42.114Z,100209.75
2023-05-05T13:27:14.267Z,100201.13
2023-05-05T13:29:43.774Z,100208.47
2023-05-05T13:32:10.436Z,100199.97
2023-05-05T13:34:39.086Z,100188.97
2023-05-05T13:37:06.069Z,100192.72
2023-05-05T13:39:35.531Z,100193.38
2023-05-05T13:42:04.462Z,100186.59
2023-05-05T13:44:33.350Z,100176.97
2023-05-05T13:46:59.969Z,100174.72
2023-05-05T13:49:27.036Z,100173.69
2023-05-05T13:51:53.785Z,100174.47
2023-05-05T13:54:20.397Z,100174.34
2023-05-05T13:56:49.377Z,100173.31
2023-05-05T13:59:18.149Z,100173.13
2023-05-05T14:01:47.175Z,100175.06
2023-05-05T14:04:13.764Z,100177.94
2023-05-05T14:06:40.430Z,100176.47
2023-05-05T14:09:09.027Z,100175.94
2023-05-05T14:11:37.800Z,100171.84
2023-05-05T14:14:06.960Z,100171.53
2023-05-05T14:16:35.915Z,100170.31
2023-05-05T14:19:05.233Z,100164.88
2023-05-05T14:21:34.061Z,100168.56
2023-05-05T14:24:02.885Z,100164.31
2023-05-05T14:26:31.527Z,100164.84
2023-05-05T14:28:58.088Z,100157.03
2023-05-05T14:31:25.066Z,100164.03
2023-05-05T14:33:51.738Z,100166.16
2023-05-05T14:36:20.667Z,100153.13
2023-05-05T14:38:55.047Z,100163.69
2023-05-05T14:41:21.707Z,100155.22
2023-05-05T14:43:50.534Z,100154.22
2023-05-05T14:46:19.409Z,100161.34
2023-05-05T14:48:47.321Z,100162.94
2023-05-05T14:51:16.424Z,100154.88
2023-05-05T14:53:43.020Z,100159.41
2023-05-05T14:56:11.850Z,100161.91
2023-05-05T14:58:38.458Z,100153.16
2023-05-05T15:01:05.331Z,100149.38
2023-05-05T15:03:32.356Z,100157.88
2023-05-05T15:05:58.976Z,100151.25
2023-05-05T15:08:25.695Z,100154.28
2023-05-05T15:10:54.509Z,100148.56
2023-05-05T15:13:24.094Z,100146.16
2023-05-05T15:15:51.375Z,100151.91
2023-05-05T15:18:20.386Z,100145.78
2023-05-05T15:20:46.967Z,100143.00
2023-05-05T15:23:13.559Z,100145.84
2023-05-05T15:25:40.137Z,100143.91
2023-05-05T15:28:08.909Z,100145.53
2023-05-05T15:30:37.860Z,100148.66
2023-05-05T15:33:04.605Z,100141.88
2023-05-05T15:35:31.335Z,100136.22
2023-05-05T15:37:58.064Z,100135.44
2023-05-05T15:40:27.431Z,100135.81
2023-05-05T15:42:56.739Z,100135.31
2023-05-05T15:45:23.680Z,100130.78
2023-05-05T15:47:53.739Z,100136.53
2023-05-05T15:50:20.678Z,100123.75
2023-05-05T15:52:49.339Z,100118.75
2023-05-05T15:55:18.895Z,100126.72
2023-05-05T15:57:45.519Z,100126.75
2023-05-05T16:00:12.655Z,100129.53
2023-05-05T16:02:39.685Z,100127.50
2023-05-05T16:05:09.461Z,100122.44
2023-05-05T16:07:38.627Z,100121.16
2023-05-05T16:10:08.280Z,100124.09
2023-05-05T16:12:37.412Z,100116.88
2023-05-05T16:15:07.143Z,100113.56
2023-05-05T16:17:34.024Z,100114.53
2023-05-05T16:20:00.752Z,100119.53
2023-05-05T16:22:30.110Z,100114.06
2023-05-05T16:24:59.072Z,100118.78
2023-05-05T16:27:27.722Z,100112.81
2023-05-05T16:29:54.153Z,100118.94
2023-05-05T16:32:23.321Z,100109.81
2023-05-05T16:34:52.255Z,100120.06
2023-05-05T16:37:21.090Z,100115.06
2023-05-05T16:39:47.750Z,100109.53
2023-05-05T16:42:14.297Z,100113.06
2023-05-05T16:44:43.318Z,100122.34
2023-05-05T16:47:12.964Z,100104.66
2023-05-05T16:49:41.823Z,100121.50
2023-05-05T16:52:13.163Z,100112.34
2023-05-05T16:54:39.730Z,100107.78
2023-05-05T16:57:11.141Z,100111.28
2023-05-05T16:59:37.683Z,100109.63
2023-05-05T17:02:04.412Z,100110.66
2023-05-05T17:04:31.002Z,100111.84
2023-05-05T17:06:59.607Z,100113.91
2023-05-05T17:09:27.332Z,100122.97
2023-05-05T17:11:56.520Z,100110.84
2023-05-05T17:14:26.557Z,100116.34
2023-05-05T17:16:54.389Z,100115.81
2023-05-05T17:19:20.948Z,100117.38
2023-05-05T17:21:50.268Z,100109.00
2023-05-05T17:24:19.211Z,100123.13
2023-05-05T17:26:46.217Z,100121.69
2023-05-05T17:29:13.240Z,100115.94
2023-05-05T17:31:42.941Z,100119.56
2023-05-05T17:34:15.511Z,100115.47
2023-05-05T17:36:46.804Z,100115.63
2023-05-05T17:39:13.721Z,100127.31
2023-05-05T17:41:42.046Z,100121.41
2023-05-05T17:44:08.641Z,100127.53
2023-05-05T17:46:38.378Z,100125.09
2023-05-05T17:49:05.171Z,100119.28
2023-05-05T17:51:34.326Z,100128.97
2023-05-05T17:54:00.866Z,100134.56
2023-05-05T17:56:30.455Z,100128.63
2023-05-05T17:59:00.718Z,100129.78
2023-05-05T18:01:27.298Z,100131.59
2023-05-05T18:03:56.099Z,100129.16
2023-05-05T18:06:22.606Z,100133.56
2023-05-05T18:08:49.418Z,100133.72
2023-05-05T18:11:19.306Z,100134.75
2023-05-05T18:13:48.200Z,100142.72
2023-05-05T18:16:14.707Z,100148.03
2023-05-05T18:18:46.004Z,100136.09
2023-05-05T18:21:12.597Z,100142.28
2023-05-05T18:23:39.991Z,100146.78
2023-05-05T18:26:11.153Z,100150.41
2023-05-05T18:28:37.713Z,100153.00
2023-05-05T18:31:04.278Z,100148.78
2023-05-05T18:33:31.094Z,100150.56
2023-05-05T18:35:57.927Z,100152.25
2023-05-05T18:38:24.792Z,100143.88
2023-05-05T18:40:57.058Z,100149.03
2023-05-05T18:43:25.899Z,100150.69
2023-05-05T18:45:54.815Z,100159.25
2023-05-05T18:48:21.494Z,100160.31
2023-05-05T18:50:48.993Z,100155.88
2023-05-05T18:53:17.846Z,100157.66
2023-05-05T18:55:47.222Z,100155.03
2023-05-05T18:58:13.875Z,100161.16
2023-05-05T19:00:40.482Z,100164.78
2023-05-05T19:03:09.261Z,100161.28
2023-05-05T19:05:36.090Z,100163.03
2023-05-05T19:08:02.669Z,100163.00
2023-05-05T19:10:31.363Z,100169.03
2023-05-05T19:13:00.957Z,100168.19
2023-05-05T19:15:27.634Z,100168.13
2023-05-05T19:17:54.687Z,100167.97
2023-05-05T19:20:24.273Z,100170.56
2023-05-05T19:22:53.405Z,100171.56
2023-05-05T19:25:19.979Z,100173.44
2023-05-05T19:27:51.317Z,100170.69
2023-05-05T19:30:20.620Z,100162.81
2023-05-05T19:32:49.687Z,100159.38
2023-05-05T19:35:18.887Z,100164.69
2023-05-05T19:37:47.976Z,100159.47
2023-05-05T19:40:14.538Z,100164.84
2023-05-05T19:42:43.509Z,100152.78
2023-05-05T19:45:12.457Z,100166.50
2023-05-05T19:47:39.093Z,100161.28
2023-05-05T19:50:06.429Z,100162.13
2023-05-05T19:52:36.781Z,100161.25
2023-05-05T19:55:10.342Z,100167.31
2023-05-05T19:57:36.960Z,100162.97
2023-05-05T20:00:06.714Z,100159.50
2023-05-05T20:02:37.340Z,100157.72
2023-05-05T20:05:07.436Z,100156.81
2023-05-05T20:07:41.673Z,100159.50
2023-05-05T20:10:13.106Z,100156.03
2023-05-05T20:12:48.289Z,100157.81
2023-05-05T20:15:19.487Z,100151.75
2023-05-05T20:17:51.474Z,100160.47
2023-05-05T20:20:22.583Z,100163.28
2023-05-05T20:22:51.427Z,100152.88
2023-05-05T20:25:22.824Z,100156.34
2023-05-05T20:27:49.525Z,100154.69
2023-05-05T20:30:16.171Z,100153.81
2023-05-05T20:32:47.462Z,100156.41
2023-05-05T20:35:18.866Z,100154.72
2023-05-05T20:37:47.667Z,100151.38
2023-05-05T20:40:16.973Z,100151.47
2023-05-05T20:42:46.057Z,100152.47
2023-05-05T20:45:15.278Z,100151.56
2023-05-05T20:47:46.817Z,100156.06
2023-05-05T20:50:13.700Z,100154.19
2023-05-05T20:52:42.458Z,100155.91
2023-05-05T20:55:09.193Z,100156.88
2023-05-05T20:57:35.819Z,100158.56
2023-05-05T21:00:02.569Z,100172.41
2023-05-05T21:02:29.758Z,100154.25
2023-05-05T21:05:02.409Z,100149.13
2023-05-05T21:07:31.322Z,100155.19
2023-05-05T21:09:58.124Z,100154.47
2023-05-05T21:12:28.312Z,100153.72
2023-05-05T21:14:58.746Z,100152.03
2023-05-05T21:17:26.832Z,100157.28
2023-05-05T21:19:53.911Z,100149.50
2023-05-05T21:22:21.282Z,100140.84
2023-05-05T21:24:48.232Z,100146.97
2023-05-05T21:27:18.466Z,100141.78
2023-05-05T21:29:45.039Z,100146.03
2023-05-05T21:32:12.020Z,100139.13
2023-05-05T21:34:41.600Z,100139.13
2023-05-05T21:37:08.460Z,100144.28
2023-05-05T21:39:35.415Z,100143.41
2023-05-05T21:42:02.028Z,100138.25
2023-05-05T21:44:28.645Z,100133.06
2023-05-05T21:46:58.634Z,100126.19
2023-05-05T21:49:29.974Z,100131.41
2023-05-05T21:51:58.954Z,100117.56
2023-05-05T21:54:30.353Z,100114.09
2023-05-05T21:57:00.199Z,100114.97
2023-05-05T21:59:28.735Z,100107.22
2023-05-05T22:01:57.884Z,100115.03
2023-05-05T22:04:24.521Z,100113.31
2023-05-05T22:06:56.599Z,100116.78
2023-05-05T22:09:23.276Z,100121.97
2023-05-05T22:11:50.821Z,100113.34
2023-05-05T22:14:17.514Z,100118.50
2023-05-05T22:16:46.614Z,100121.97
2023-05-05T22:19:16.405Z,100117.66
2023-05-05T22:21:43.386Z,100127.16
2023-05-05T22:24:12.352Z,100128.91
2023-05-05T22:26:43.096Z,100129.78
2023-05-05T22:29:12.831Z,100117.69
2023-05-05T22:31:39.515Z,100122.91
2023-05-05T22:34:08.655Z,100128.94
2023-05-05T22:36:35.338Z,100137.56
2023-05-05T22:39:01.995Z,100135.00
2023-05-05T22:41:33.410Z,100145.34
2023-05-05T22:44:02.208Z,100138.41
2023-05-05T22:46:31.016Z,100138.44
2023-05-05T22:49:00.072Z,100145.34
2023-05-05T22:51:29.378Z,100139.25
2023-05-05T22:53:55.993Z,100146.16
2023-05-05T22:56:22.657Z,100152.22
2023-05-05T22:58:52.203Z,100142.72
2023-05-05T23:01:21.082Z,100141.00
2023-05-05T23:03:47.828Z,100147.03
2023-05-05T23:06:14.526Z,100137.53
2023-05-05T23:08:43.382Z,100131.47
2023-05-05T23:11:09.996Z,100134.88
2023-05-05T23:13:39.045Z,100124.53
2023-05-05T23:16:08.093Z,100122.88
2023-05-05T23:18:36.362Z,100124.59
2023-05-05T23:21:05.679Z,100122.03
2023-05-05T23:23:34.724Z,100129.75
2023-05-05T23:26:01.333Z,100131.44
2023-05-05T23:28:27.901Z,100129.69
2023-05-05T23:30:54.555Z,100125.28
2023-05-05T23:33:23.385Z,100121.03
2023-05-05T23:35:55.126Z,100125.34
2023-05-05T23:38:24.115Z,100127.94
2023-05-05T23:40:53.629Z,100124.53
2023-05-05T23:43:24.972Z,100121.91
2023-05-05T23:45:53.734Z,100131.34
2023-05-05T23:48:20.531Z,100120.16
2023-05-05T23:50:47.128Z,100128.75
2023-05-05T23:53:17.806Z,100129.63
2023-05-05T23:55:44.401Z,100128.69
2023-05-05T23:58:11.009Z,100129.53
